Eden, New York
Current Conditions -  °F | °C
As of 11:53 PM on Tuesday 25 Nov 2014 (Local Time) from KDKK Reporting Station
Overcast Overcast  
Wind Chill: -2°   Ceiling: 2500
Heat Index:   Visibility: 10mi
Dew Point: -3°   Wind: 7mph
Humidity: 70%   Direction: 290°WNW
Pressure: 30.19"   Gusts: NA
Location:  42.65°N, 78.9°W
Report Text: KDKK 260453Z AUTO 29006KT 10SM OVC025 02/M03 A3019 RMK AO2 SLP231 T00171033 400670017
Loading
Personal Weather Stations






























Interactive Weather Map New forecast layout! Learn more

10-Day Weather Forecast

Advertisements
Track Severe Weather on mobile